createdAt,value
2022-12-03T00:02:15.103Z,1.61
2022-12-03T00:04:41.586Z,1.61
2022-12-03T00:07:08.145Z,1.62
2022-12-03T00:09:34.802Z,1.61
2022-12-03T00:12:01.295Z,1.62
2022-12-03T00:14:27.725Z,1.62
2022-12-03T00:16:54.266Z,1.61
2022-12-03T00:19:20.634Z,1.61
2022-12-03T00:21:47.118Z,1.61
2022-12-03T00:24:13.515Z,1.61
2022-12-03T00:26:39.927Z,1.60
2022-12-03T00:29:06.368Z,1.61
2022-12-03T00:31:32.862Z,1.59
2022-12-03T00:33:59.396Z,1.61
2022-12-03T00:36:25.742Z,1.62
2022-12-03T00:38:52.103Z,1.62
2022-12-03T00:41:18.715Z,1.62
2022-12-03T00:43:45.149Z,1.62
2022-12-03T00:46:11.677Z,1.63
2022-12-03T00:48:38.294Z,1.65
2022-12-03T00:51:04.951Z,1.65
2022-12-03T00:53:31.462Z,1.67
2022-12-03T00:55:57.997Z,1.61
2022-12-03T00:58:24.369Z,1.63
2022-12-03T01:00:50.964Z,1.61
2022-12-03T01:03:17.433Z,1.59
2022-12-03T01:05:43.805Z,1.58
2022-12-03T01:08:10.425Z,1.57
2022-12-03T01:10:36.905Z,1.57
2022-12-03T01:13:03.426Z,1.58
2022-12-03T01:15:29.814Z,1.60
2022-12-03T01:17:56.327Z,1.58
2022-12-03T01:20:22.727Z,1.58
2022-12-03T01:22:49.126Z,1.58
2022-12-03T01:25:15.780Z,1.57
2022-12-03T01:27:42.583Z,1.59
2022-12-03T01:30:10.853Z,1.58
2022-12-03T01:32:37.288Z,1.58
2022-12-03T01:35:04.582Z,1.59
2022-12-03T01:37:31.399Z,1.59
2022-12-03T01:39:57.801Z,1.61
2022-12-03T01:42:31.361Z,1.62
2022-12-03T01:44:59.752Z,1.62
2022-12-03T01:47:32.157Z,1.62
2022-12-03T01:50:13.793Z,1.66
2022-12-03T01:52:40.836Z,1.66
2022-12-03T01:55:13.938Z,1.64
2022-12-03T01:57:45.202Z,1.63
2022-12-03T02:00:17.891Z,1.61
2022-12-03T02:02:45.076Z,1.65
2022-12-03T02:05:18.648Z,1.65
2022-12-03T02:07:45.527Z,1.66
2022-12-03T02:10:15.099Z,1.68
2022-12-03T02:12:47.446Z,1.67
2022-12-03T02:15:14.385Z,1.68
2022-12-03T02:17:42.374Z,1.66
2022-12-03T02:20:10.919Z,1.70
2022-12-03T02:22:46.189Z,1.70
2022-12-03T02:25:25.961Z,1.70
2022-12-03T02:27:54.901Z,1.70
2022-12-03T02:30:23.882Z,1.68
2022-12-03T02:32:51.813Z,1.68
2022-12-03T02:35:27.462Z,1.71
2022-12-03T02:38:02.604Z,1.72
2022-12-03T02:40:32.426Z,1.72
2022-12-03T02:43:01.132Z,1.74
2022-12-03T02:45:39.321Z,1.75
2022-12-03T02:48:09.789Z,1.77
2022-12-03T02:50:40.316Z,1.79
2022-12-03T02:53:11.719Z,1.80
2022-12-03T02:55:38.854Z,1.79
2022-12-03T02:58:05.792Z,1.80
2022-12-03T03:00:33.435Z,1.82
2022-12-03T03:03:01.003Z,1.82
2022-12-03T03:05:27.539Z,1.83
2022-12-03T03:07:54.315Z,1.81
2022-12-03T03:10:23.464Z,1.83
2022-12-03T03:12:52.375Z,1.84
2022-12-03T03:15:18.887Z,1.83
2022-12-03T03:17:45.636Z,1.84
2022-12-03T03:20:13.410Z,1.86
2022-12-03T03:22:42.096Z,1.86
2022-12-03T03:25:12.494Z,1.88
2022-12-03T03:27:41.168Z,1.87
2022-12-03T03:30:09.584Z,1.87
2022-12-03T03:32:37.074Z,1.86
2022-12-03T03:35:04.102Z,1.86
2022-12-03T03:37:30.831Z,1.84
2022-12-03T03:39:57.402Z,1.86
2022-12-03T03:42:24.213Z,1.86
2022-12-03T03:44:51.141Z,1.89
2022-12-03T03:47:18.335Z,1.90
2022-12-03T03:49:45.059Z,1.90
2022-12-03T03:52:11.816Z,1.89
2022-12-03T03:54:39.399Z,1.91
2022-12-03T03:57:06.096Z,1.91
2022-12-03T03:59:32.545Z,1.91
2022-12-03T04:01:58.916Z,1.92
2022-12-03T04:04:35.205Z,1.93
2022-12-03T04:07:02.087Z,1.92
2022-12-03T04:09:28.448Z,1.92
2022-12-03T04:12:13.422Z,1.91
2022-12-03T04:14:39.765Z,1.91
2022-12-03T04:17:06.198Z,1.93
2022-12-03T04:19:32.505Z,1.93
2022-12-03T04:22:17.606Z,1.93
2022-12-03T04:24:44.072Z,1.94
2022-12-03T04:27:29.165Z,1.94
2022-12-03T04:29:55.515Z,1.95
2022-12-03T04:32:40.365Z,1.94
2022-12-03T04:35:25.665Z,1.93
2022-12-03T04:37:52.083Z,1.94
2022-12-03T04:40:41.310Z,1.93
2022-12-03T04:43:07.896Z,1.95
2022-12-03T04:45:34.343Z,1.95
2022-12-03T04:48:00.779Z,1.95
2022-12-03T04:50:27.199Z,1.96
2022-12-03T04:52:53.631Z,1.95
2022-12-03T04:55:20.206Z,1.96
2022-12-03T04:57:46.562Z,1.96
2022-12-03T05:00:13.677Z,1.96
2022-12-03T05:02:40.512Z,1.95
2022-12-03T05:05:07.310Z,1.96
2022-12-03T05:07:33.866Z,1.96
2022-12-03T05:10:00.359Z,1.95
2022-12-03T05:12:26.863Z,1.98
2022-12-03T05:14:53.547Z,1.98
2022-12-03T05:17:20.091Z,1.98
2022-12-03T05:20:05.401Z,1.99
2022-12-03T05:22:31.830Z,1.99
2022-12-03T05:24:58.300Z,1.98
2022-12-03T05:27:24.664Z,1.98
2022-12-03T05:29:51.358Z,2.00
2022-12-03T05:32:17.946Z,2.02
2022-12-03T05:34:44.391Z,2.05
2022-12-03T05:37:11.114Z,2.02
2022-12-03T05:39:38.012Z,1.98
2022-12-03T05:42:23.014Z,1.97
2022-12-03T05:44:49.528Z,1.94
2022-12-03T05:47:16.038Z,1.90
2022-12-03T05:49:42.726Z,1.89
2022-12-03T05:52:09.292Z,1.88
2022-12-03T05:54:35.614Z,1.87
2022-12-03T05:57:01.974Z,1.86
2022-12-03T05:59:28.307Z,1.87
2022-12-03T06:01:54.726Z,1.87
2022-12-03T06:04:21.168Z,1.88
2022-12-03T06:06:47.506Z,1.88
2022-12-03T06:09:13.866Z,1.88
2022-12-03T06:11:40.571Z,1.88
2022-12-03T06:14:06.896Z,1.87
2022-12-03T06:16:33.326Z,1.85
2022-12-03T06:18:59.881Z,1.86
2022-12-03T06:21:26.243Z,1.83
2022-12-03T06:23:52.648Z,1.83
2022-12-03T06:26:19.035Z,1.82
2022-12-03T06:28:47.507Z,1.80
2022-12-03T06:31:14.005Z,1.81
2022-12-03T06:33:40.458Z,1.82
2022-12-03T06:36:07.117Z,1.83
2022-12-03T06:38:33.568Z,1.84
2022-12-03T06:40:59.933Z,1.83
2022-12-03T06:43:26.405Z,1.83
2022-12-03T06:45:53.155Z,1.83
2022-12-03T06:48:19.536Z,1.84
2022-12-03T06:50:46.059Z,1.83
2022-12-03T06:53:12.393Z,1.82
2022-12-03T06:55:38.872Z,1.82
2022-12-03T06:58:05.319Z,1.84
2022-12-03T07:00:31.747Z,1.84
2022-12-03T07:02:58.196Z,1.84
2022-12-03T07:05:24.603Z,1.86
2022-12-03T07:07:52.302Z,1.84
2022-12-03T07:10:19.229Z,1.85
2022-12-03T07:12:45.654Z,1.81
2022-12-03T07:15:12.304Z,1.82
2022-12-03T07:17:39.007Z,1.82
2022-12-03T07:20:06.187Z,1.81
2022-12-03T07:22:32.819Z,1.79
2022-12-03T07:24:59.188Z,1.76
2022-12-03T07:27:25.759Z,1.76
2022-12-03T07:29:52.122Z,1.76
2022-12-03T07:32:18.491Z,1.74
2022-12-03T07:34:44.930Z,1.76
2022-12-03T07:37:11.371Z,1.75
2022-12-03T07:39:37.835Z,1.74
2022-12-03T07:42:04.593Z,1.72
2022-12-03T07:44:31.965Z,1.70
2022-12-03T07:46:58.671Z,1.71
2022-12-03T07:49:26.612Z,1.73
2022-12-03T07:51:56.995Z,1.74
2022-12-03T07:54:24.507Z,1.74
2022-12-03T07:56:50.883Z,1.73
2022-12-03T07:59:17.664Z,1.73
2022-12-03T08:01:44.860Z,1.74
2022-12-03T08:04:14.653Z,1.71
2022-12-03T08:06:41.623Z,1.69
2022-12-03T08:09:09.967Z,1.68
2022-12-03T08:11:40.092Z,1.63
2022-12-03T08:14:15.059Z,1.63
2022-12-03T08:16:42.893Z,1.64
2022-12-03T08:19:13.780Z,1.66
2022-12-03T08:21:40.615Z,1.65
2022-12-03T08:24:19.154Z,1.65
2022-12-03T08:26:47.928Z,1.64
2022-12-03T08:29:17.848Z,1.60
2022-12-03T08:31:54.564Z,1.54
2022-12-03T08:34:23.718Z,1.52
2022-12-03T08:36:56.016Z,1.52
2022-12-03T08:39:33.156Z,1.53
2022-12-03T08:42:32.487Z,1.51
2022-12-03T08:45:40.272Z,1.55
2022-12-03T08:48:18.942Z,1.54
2022-12-03T08:50:45.862Z,1.53
2022-12-03T08:53:37.662Z,1.50
2022-12-03T08:56:27.087Z,1.52
2022-12-03T08:59:30.449Z,1.51
2022-12-03T09:01:58.590Z,1.52
2022-12-03T09:04:38.991Z,1.53
2022-12-03T09:07:05.549Z,1.53
2022-12-03T09:09:32.054Z,1.55
2022-12-03T09:11:58.475Z,1.57
2022-12-03T09:14:24.943Z,1.58
2022-12-03T09:16:55.542Z,1.58
2022-12-03T09:19:26.982Z,1.57
2022-12-03T09:21:54.455Z,1.54
2022-12-03T09:24:21.123Z,1.53
2022-12-03T09:26:47.545Z,1.50
2022-12-03T09:29:14.018Z,1.47
2022-12-03T09:31:41.088Z,1.47
2022-12-03T09:34:07.874Z,1.49
2022-12-03T09:36:34.334Z,1.49
2022-12-03T09:39:00.967Z,1.51
2022-12-03T09:41:27.730Z,1.52
2022-12-03T09:44:17.186Z,1.50
2022-12-03T09:46:42.394Z,1.53
2022-12-03T09:49:15.823Z,1.48
2022-12-03T09:51:43.990Z,1.41
2022-12-03T09:54:18.359Z,1.42
2022-12-03T09:56:44.744Z,1.43
2022-12-03T09:59:15.183Z,1.45
2022-12-03T10:01:42.176Z,1.41
2022-12-03T10:04:08.913Z,1.35
2022-12-03T10:06:38.845Z,1.36
2022-12-03T10:09:11.182Z,1.36
2022-12-03T10:11:37.999Z,1.39
2022-12-03T10:14:04.787Z,1.42
2022-12-03T10:16:31.408Z,1.43
2022-12-03T10:19:01.068Z,1.44
2022-12-03T10:21:32.192Z,1.43
2022-12-03T10:24:17.838Z,1.47
2022-12-03T10:26:45.691Z,1.40
2022-12-03T10:29:17.452Z,1.35
2022-12-03T10:31:44.315Z,1.36
2022-12-03T10:34:11.560Z,1.35
2022-12-03T10:36:38.241Z,1.35
2022-12-03T10:39:13.591Z,1.27
2022-12-03T10:41:41.992Z,1.21
2022-12-03T10:44:18.937Z,1.25
2022-12-03T10:47:03.980Z,1.23
2022-12-03T10:49:30.641Z,1.24
2022-12-03T10:51:57.446Z,1.31
2022-12-03T10:54:26.365Z,1.37
2022-12-03T10:56:53.046Z,1.31
2022-12-03T10:59:25.202Z,1.31
2022-12-03T11:01:52.506Z,1.31
2022-12-03T11:04:32.791Z,1.34
2022-12-03T11:07:01.809Z,1.32
2022-12-03T11:09:32.155Z,1.30
2022-12-03T11:12:07.402Z,1.29
2022-12-03T11:14:49.036Z,1.30
2022-12-03T11:17:44.235Z,1.29
2022-12-03T11:20:18.088Z,1.29
2022-12-03T11:22:49.166Z,1.26
2022-12-03T11:25:37.075Z,1.24
2022-12-03T11:28:15.175Z,1.25
2022-12-03T11:30:50.874Z,1.27
2022-12-03T11:33:24.967Z,1.29
2022-12-03T11:36:03.298Z,1.26
2022-12-03T11:38:47.370Z,1.28
2022-12-03T11:41:28.167Z,1.30
2022-12-03T11:43:57.491Z,1.32
2022-12-03T11:46:36.155Z,1.38
2022-12-03T11:49:23.246Z,1.35
2022-12-03T11:51:50.022Z,1.30
2022-12-03T11:54:18.927Z,1.29
2022-12-03T11:56:49.486Z,1.27
2022-12-03T11:59:17.155Z,1.27
2022-12-03T12:01:44.365Z,1.28
2022-12-03T12:04:31.773Z,1.33
2022-12-03T12:06:58.317Z,1.31
2022-12-03T12:09:51.259Z,1.29
2022-12-03T12:12:36.877Z,1.34
2022-12-03T12:15:35.440Z,1.27
2022-12-03T12:18:38.917Z,1.29
2022-12-03T12:21:42.122Z,1.34
2022-12-03T12:24:43.529Z,1.32
2022-12-03T12:27:12.629Z,1.30
2022-12-03T12:29:41.891Z,1.28
2022-12-03T12:32:15.240Z,1.25
2022-12-03T12:34:47.771Z,1.29
2022-12-03T12:37:28.172Z,1.21
2022-12-03T12:39:57.121Z,1.17
2022-12-03T12:42:34.023Z,1.11
2022-12-03T12:45:18.952Z,1.04
2022-12-03T12:48:10.258Z,1.09
2022-12-03T12:50:38.160Z,1.10
2022-12-03T12:53:10.467Z,1.13
2022-12-03T12:55:38.297Z,1.13
2022-12-03T12:58:13.444Z,1.12
2022-12-03T13:00:40.017Z,1.13
2022-12-03T13:03:07.698Z,1.08
2022-12-03T13:05:42.767Z,1.11
2022-12-03T13:08:27.824Z,1.12
2022-12-03T13:10:57.500Z,1.16
2022-12-03T13:13:28.906Z,1.19
2022-12-03T13:15:59.886Z,1.18
2022-12-03T13:18:31.162Z,1.11
2022-12-03T13:20:57.931Z,1.15
2022-12-03T13:23:31.139Z,1.11
2022-12-03T13:26:06.836Z,1.09
2022-12-03T13:28:41.747Z,1.06
2022-12-03T13:31:21.917Z,1.07
2022-12-03T13:33:49.120Z,1.15
2022-12-03T13:36:16.739Z,1.13
2022-12-03T13:38:44.697Z,1.14
2022-12-03T13:41:38.886Z,1.12
2022-12-03T13:44:15.752Z,1.03
2022-12-03T13:46:42.260Z,1.03
2022-12-03T13:49:19.658Z,1.02
2022-12-03T13:51:47.186Z,0.99
2022-12-03T13:54:19.338Z,0.97
2022-12-03T13:56:46.035Z,0.98
2022-12-03T13:59:12.746Z,0.97
2022-12-03T14:01:39.416Z,0.94
2022-12-03T14:04:05.989Z,0.97
2022-12-03T14:06:33.655Z,0.87
2022-12-03T14:09:00.341Z,0.86
2022-12-03T14:11:45.381Z,0.86
2022-12-03T14:14:11.819Z,0.85
2022-12-03T14:16:38.298Z,0.86
2022-12-03T14:19:04.811Z,0.82
2022-12-03T14:21:31.295Z,0.82
2022-12-03T14:23:57.672Z,0.78
2022-12-03T14:26:24.085Z,0.73
2022-12-03T14:28:50.474Z,0.71
2022-12-03T14:31:17.002Z,0.74
2022-12-03T14:33:43.530Z,0.76
2022-12-03T14:36:10.014Z,0.76
2022-12-03T14:38:36.404Z,0.74
2022-12-03T14:41:02.927Z,0.72
2022-12-03T14:43:29.249Z,0.72
2022-12-03T14:45:55.690Z,0.69
2022-12-03T14:48:22.216Z,0.72
2022-12-03T14:50:48.586Z,0.72
2022-12-03T14:53:15.096Z,0.71
2022-12-03T14:55:41.472Z,0.70
2022-12-03T14:58:08.023Z,0.75
2022-12-03T15:00:34.393Z,0.75
2022-12-03T15:03:00.820Z,0.78
2022-12-03T15:05:29.054Z,0.75
2022-12-03T15:07:56.108Z,0.72
2022-12-03T15:10:22.567Z,0.75
2022-12-03T15:12:48.933Z,0.76
2022-12-03T15:15:15.339Z,0.75
2022-12-03T15:17:45.489Z,0.74
2022-12-03T15:20:12.733Z,0.75
2022-12-03T15:22:39.238Z,0.74
2022-12-03T15:25:07.558Z,0.69
2022-12-03T15:27:34.009Z,0.65
2022-12-03T15:30:00.382Z,0.66
2022-12-03T15:32:26.867Z,0.71
2022-12-03T15:34:53.459Z,0.68
2022-12-03T15:37:19.910Z,0.66
2022-12-03T15:39:48.762Z,0.66
2022-12-03T15:42:15.460Z,0.65
2022-12-03T15:44:41.786Z,0.60
2022-12-03T15:47:08.106Z,0.54
2022-12-03T15:49:34.497Z,0.54
2022-12-03T15:52:00.993Z,0.53
2022-12-03T15:54:27.354Z,0.52
2022-12-03T15:56:57.230Z,0.52
2022-12-03T15:59:24.018Z,0.50
2022-12-03T16:01:50.405Z,0.51
2022-12-03T16:04:17.099Z,0.53
2022-12-03T16:06:43.472Z,0.54
2022-12-03T16:09:09.934Z,0.52
2022-12-03T16:11:36.346Z,0.54
2022-12-03T16:14:02.777Z,0.51
2022-12-03T16:16:29.223Z,0.47
2022-12-03T16:18:55.718Z,0.51
2022-12-03T16:21:26.677Z,0.53
2022-12-03T16:23:54.117Z,0.52
2022-12-03T16:26:20.500Z,0.47
2022-12-03T16:28:46.881Z,0.48
2022-12-03T16:31:13.345Z,0.50
2022-12-03T16:33:39.794Z,0.50
2022-12-03T16:36:06.465Z,0.51
2022-12-03T16:38:33.577Z,0.53
2022-12-03T16:41:01.149Z,0.49
2022-12-03T16:43:27.842Z,0.48
2022-12-03T16:46:20.760Z,0.43
2022-12-03T16:48:48.239Z,0.46
2022-12-03T16:51:15.067Z,0.43
2022-12-03T16:53:42.179Z,0.41
2022-12-03T16:56:08.746Z,0.41
2022-12-03T16:58:35.104Z,0.39
2022-12-03T17:01:01.740Z,0.40
2022-12-03T17:03:33.589Z,0.39
2022-12-03T17:06:00.937Z,0.40
2022-12-03T17:08:27.513Z,0.36
2022-12-03T17:10:54.076Z,0.34
2022-12-03T17:13:20.661Z,0.34
2022-12-03T17:15:47.100Z,0.35
2022-12-03T17:18:13.588Z,0.37
2022-12-03T17:20:40.010Z,0.40
2022-12-03T17:23:06.710Z,0.38
2022-12-03T17:25:34.370Z,0.40
2022-12-03T17:28:01.358Z,0.40
2022-12-03T17:30:27.990Z,0.43
2022-12-03T17:32:54.367Z,0.41
2022-12-03T17:35:20.892Z,0.38
2022-12-03T17:37:47.259Z,0.34
2022-12-03T17:40:16.857Z,0.35
2022-12-03T17:42:43.411Z,0.33
2022-12-03T17:45:10.327Z,0.34
2022-12-03T17:47:36.796Z,0.35
2022-12-03T17:50:03.440Z,0.33
2022-12-03T17:52:29.812Z,0.33
2022-12-03T17:55:10.747Z,0.35
2022-12-03T17:57:39.403Z,0.33
2022-12-03T18:00:06.423Z,0.29
2022-12-03T18:02:32.880Z,0.33
2022-12-03T18:04:59.419Z,0.30
2022-12-03T18:07:25.872Z,0.30
2022-12-03T18:09:53.328Z,0.31
2022-12-03T18:12:19.847Z,0.35
2022-12-03T18:14:46.383Z,0.31
2022-12-03T18:17:13.791Z,0.26
2022-12-03T18:19:40.122Z,0.26
2022-12-03T18:22:07.067Z,0.27
2022-12-03T18:24:33.463Z,0.28
2022-12-03T18:26:59.831Z,0.26
2022-12-03T18:29:26.263Z,0.27
2022-12-03T18:31:52.748Z,0.29
2022-12-03T18:34:19.199Z,0.26
2022-12-03T18:36:45.834Z,0.24
2022-12-03T18:39:24.248Z,0.22
2022-12-03T18:41:50.812Z,0.23
2022-12-03T18:44:17.197Z,0.24
2022-12-03T18:46:58.903Z,0.25
2022-12-03T18:49:25.356Z,0.21
2022-12-03T18:51:58.726Z,0.21
2022-12-03T18:54:25.947Z,0.22
2022-12-03T18:56:53.467Z,0.21
2022-12-03T18:59:19.810Z,0.20
2022-12-03T19:01:46.239Z,0.20
2022-12-03T19:04:12.819Z,0.21
2022-12-03T19:06:40.274Z,0.23
2022-12-03T19:09:06.815Z,0.19
2022-12-03T19:11:34.082Z,0.20
2022-12-03T19:14:02.811Z,0.20
2022-12-03T19:16:29.315Z,0.18
2022-12-03T19:18:55.964Z,0.16
2022-12-03T19:21:22.679Z,0.18
2022-12-03T19:24:22.155Z,0.19
2022-12-03T19:26:35.495Z,0.17
2022-12-03T19:29:02.955Z,0.12
2022-12-03T19:31:33.051Z,0.10
2022-12-03T19:34:00.083Z,0.05
2022-12-03T19:36:29.164Z,0.06
2022-12-03T19:38:57.607Z,0.11
2022-12-03T19:41:27.293Z,0.07
2022-12-03T19:43:55.636Z,0.06
2022-12-03T19:46:25.187Z,0.06
2022-12-03T19:48:51.917Z,0.05
2022-12-03T19:51:35.425Z,0.06
2022-12-03T19:54:06.809Z,0.06
2022-12-03T19:56:34.437Z,0.07
2022-12-03T19:59:00.951Z,0.05
2022-12-03T20:01:31.611Z,0.04
2022-12-03T20:04:00.316Z,0.03
2022-12-03T20:06:29.310Z,0.01
2022-12-03T20:09:00.599Z,0.02
2022-12-03T20:11:30.507Z,0.01
2022-12-03T20:14:03.020Z,0.01
2022-12-03T20:16:30.464Z,0.03
2022-12-03T20:19:03.750Z,0.04
2022-12-03T20:21:33.384Z,0.03
2022-12-03T20:24:00.142Z,0.03
2022-12-03T20:26:27.768Z,0.05
2022-12-03T20:28:55.514Z,0.03
2022-12-03T20:31:24.387Z,0.02
2022-12-03T20:33:54.289Z,0.04
2022-12-03T20:36:22.555Z,0.04
2022-12-03T20:38:53.148Z,0.05
2022-12-03T20:41:19.779Z,-0.01
2022-12-03T20:43:46.452Z,-0.02
2022-12-03T20:46:18.881Z,-0.01
2022-12-03T20:48:45.713Z,-0.04
2022-12-03T20:51:14.950Z,-0.08
2022-12-03T20:53:42.226Z,-0.06
2022-12-03T20:56:09.396Z,-0.06
2022-12-03T20:58:36.059Z,-0.08
2022-12-03T21:01:15.707Z,-0.07
2022-12-03T21:03:42.805Z,-0.10
2022-12-03T21:06:10.191Z,-0.11
2022-12-03T21:08:41.399Z,-0.14
2022-12-03T21:11:20.035Z,-0.14
2022-12-03T21:13:47.317Z,-0.15
2022-12-03T21:16:17.659Z,-0.11
2022-12-03T21:18:45.252Z,-0.10
2022-12-03T21:21:13.757Z,-0.11
2022-12-03T21:23:40.420Z,-0.10
2022-12-03T21:26:09.676Z,-0.11
2022-12-03T21:28:38.541Z,-0.10
2022-12-03T21:31:07.306Z,-0.08
2022-12-03T21:33:34.436Z,-0.08
2022-12-03T21:36:01.391Z,-0.10
2022-12-03T21:38:29.068Z,-0.10
2022-12-03T21:40:56.483Z,-0.14
2022-12-03T21:43:23.368Z,-0.16
2022-12-03T21:45:50.212Z,-0.16
2022-12-03T21:48:17.520Z,-0.18
2022-12-03T21:50:44.889Z,-0.18
2022-12-03T21:53:12.093Z,-0.16
2022-12-03T21:55:40.540Z,-0.18
2022-12-03T21:58:08.278Z,-0.17
2022-12-03T22:00:35.147Z,-0.13
2022-12-03T22:03:01.634Z,-0.16
2022-12-03T22:05:28.064Z,-0.16
2022-12-03T22:07:54.552Z,-0.18
2022-12-03T22:10:21.014Z,-0.17
2022-12-03T22:12:47.347Z,-0.16
2022-12-03T22:15:18.756Z,-0.17
2022-12-03T22:17:45.712Z,-0.18
2022-12-03T22:20:12.691Z,-0.18
2022-12-03T22:22:39.130Z,-0.18
2022-12-03T22:25:05.700Z,-0.20
2022-12-03T22:27:32.394Z,-0.22
2022-12-03T22:29:58.778Z,-0.20
2022-12-03T22:32:25.680Z,-0.20
2022-12-03T22:34:52.017Z,-0.19
2022-12-03T22:37:18.498Z,-0.20
2022-12-03T22:39:44.952Z,-0.18
2022-12-03T22:42:11.357Z,-0.19
2022-12-03T22:44:37.695Z,-0.18
2022-12-03T22:47:04.421Z,-0.18
2022-12-03T22:49:30.826Z,-0.17
2022-12-03T22:51:57.233Z,-0.16
2022-12-03T22:54:24.299Z,-0.16
2022-12-03T22:56:51.108Z,-0.19
2022-12-03T22:59:17.443Z,-0.17
2022-12-03T23:01:43.912Z,-0.16
2022-12-03T23:04:11.436Z,-0.17
2022-12-03T23:06:38.369Z,-0.17
2022-12-03T23:09:06.184Z,-0.14
2022-12-03T23:11:32.642Z,-0.16
2022-12-03T23:13:59.141Z,-0.13
2022-12-03T23:16:28.855Z,-0.14
2022-12-03T23:18:57.026Z,-0.18
2022-12-03T23:21:29.761Z,-0.18
2022-12-03T23:23:56.858Z,-0.19
2022-12-03T23:26:23.227Z,-0.17
2022-12-03T23:28:49.649Z,-0.17
2022-12-03T23:31:26.223Z,-0.18
2022-12-03T23:33:53.187Z,-0.17
2022-12-03T23:36:20.823Z,-0.13
2022-12-03T23:38:47.174Z,-0.15
2022-12-03T23:41:16.040Z,-0.15
2022-12-03T23:43:42.636Z,-0.14
2022-12-03T23:46:14.741Z,-0.12
2022-12-03T23:48:41.613Z,-0.16
2022-12-03T23:51:14.362Z,-0.16
2022-12-03T23:53:41.204Z,-0.16
2022-12-03T23:56:29.256Z,-0.14
2022-12-03T23:58:57.321Z,-0.14
